Time;durP1;ratioP1;P1;durP2;ratioP2;P2;SDS_P1;SDS_P2;PMS_P1;PMS_P2;Temp;Humidity;BMP_temperature;BMP_pressure;BME280_temperature;BME280_humidity;BME280_pressure;Samples;Min_cycle;Max_cycle;Signal;HPM_P1;HPM_P2
2021/06/27 00:00:44;;;;;;;;;;;;;;;;;;5773155;22;20048;-83
2021/06/27 00:03:16;;;;;;;51.97;36.55;;;;;;;;;;5112767;27;39379;-83
2021/06/27 00:05:42;;;;;;;50.20;37.70;;;;;;;;;;5131393;27;34420;-82
2021/06/27 00:08:15;;;;;;;46.42;34.63;;;;;;;;;;5111957;27;38835;-82
2021/06/27 00:13:18;;;;;;;47.70;36.08;;;;;;;;;;5490010;22;20024;-81
2021/06/27 00:15:48;;;;;;;57.17;39.55;;;;;;;;;;5127358;27;36587;-81
2021/06/27 00:32:59;;;;;;;57.10;39.33;;;;;;;;;;5077415;22;49992;-82
2021/06/27 00:35:26;;;;;;;58.10;43.47;;;;;;;;;;5598467;22;38701;-82
2021/06/27 00:37:54;;;;;;;49.85;37.30;;;;;;;;;;5241602;22;35541;-82
2021/06/27 00:40:22;;;;;;;55.17;39.58;;;;;;;;;;5089304;28;39978;-82
2021/06/27 00:48:01;;;;;;;54.58;41.08;;;;;;;;;;6247497;22;20015;-80
2021/06/27 00:50:36;;;;;;;58.75;41.65;;;;;;;;;;5084713;27;38411;-82
2021/06/27 00:53:02;;;;;;;51.78;39.35;;;;;;;;;;5069240;27;37652;-83
2021/06/27 00:58:06;;;;;;;53.15;39.67;;;;;;;;;;5122174;22;20039;-82
2021/06/27 01:00:38;;;;;;;56.58;41.05;;;;;;;;;;5074357;27;39148;-82
2021/06/27 01:03:07;;;;;;;58.38;40.83;;;;;;;;;;5074688;27;38758;-81
2021/06/27 01:05:37;;;;;;;58.90;40.05;;;;;;;;;;5073717;27;40089;-82
2021/06/27 01:18:31;;;;;;;54.80;41.83;;;;;;;;;;5984443;22;21426;-82
2021/06/27 01:21:05;;;;;;;62.90;45.60;;;;;;;;;;5071673;28;40477;-82
2021/06/27 01:28:53;;;;;;;56.05;42.20;;;;;;;;;;5205923;22;20056;-81
2021/06/27 01:31:27;;;;;;;54.80;41.63;;;;;;;;;;5090547;27;38956;-82
2021/06/27 01:59:18;;;;;;;51.65;39.70;;;;;;;;;;6050415;22;20052;-83
2021/06/27 02:46:54;;;;;;;53.75;39.88;;;;;;;;;;6017658;22;20040;-82
2021/06/27 02:49:23;;;;;;;52.85;41.17;;;;;;;;;;5117607;27;36436;-82
2021/06/27 02:54:28;;;;;;;51.53;40.63;;;;;;;;;;5448731;22;20048;-82
2021/06/27 02:56:57;;;;;;;48.85;38.72;;;;;;;;;;5062024;28;40104;-81
2021/06/27 02:59:24;;;;;;;50.75;39.83;;;;;;;;;;5088935;27;38858;-82
2021/06/27 03:01:52;;;;;;;53.45;41.85;;;;;;;;;;5086890;28;38296;-81
2021/06/27 03:04:19;;;;;;;56.70;41.20;;;;;;;;;;5084344;27;36666;-82
2021/06/27 03:09:22;;;;;;;47.10;37.80;;;;;;;;;;5381363;22;20043;-82
2021/06/27 03:38:05;;;;;;;46.88;38.33;;;;;;;;;;5668039;22;20054;-82
2021/06/27 03:40:35;;;;;;;51.03;39.15;;;;;;;;;;5094326;27;48632;-82
2021/06/27 03:51:12;;;;;;;46.65;38.15;;;;;;;;;;5278920;22;20052;-81
2021/06/27 03:53:38;;;;;;;45.83;38.95;;;;;;;;;;5070469;28;38025;-81
2021/06/27 03:56:07;;;;;;;46.15;38.13;;;;;;;;;;5051367;28;37691;-82
2021/06/27 03:58:33;;;;;;;48.10;38.55;;;;;;;;;;5052749;28;40760;-81
2021/06/27 04:01:00;;;;;;;48.25;38.60;;;;;;;;;;5052669;28;39494;-82
2021/06/27 04:25:54;;;;;;;40.10;34.50;;;;;;;;;;5491326;22;20032;-83
2021/06/27 04:36:12;;;;;;;42.10;34.75;;;;;;;;;;5954519;22;20262;-81
2021/06/27 04:38:39;;;;;;;39.95;34.03;;;;;;;;;;5083770;28;37327;-81
2021/06/27 04:41:05;;;;;;;43.63;35.13;;;;;;;;;;5076234;27;39336;-81
2021/06/27 04:43:39;;;;;;;42.30;35.08;;;;;;;;;;5091284;27;38605;-80
2021/06/27 04:46:06;;;;;;;40.58;35.35;;;;;;;;;;5080855;27;37807;-81
2021/06/27 04:48:37;;;;;;;45.70;36.60;;;;;;;;;;5082348;28;35703;-82
2021/06/27 04:51:04;;;;;;;41.87;35.17;;;;;;;;;;5077974;27;38683;-81
2021/06/27 04:53:31;;;;;;;42.08;34.00;;;;;;;;;;5081590;28;39563;-81
2021/06/27 04:55:58;;;;;;;39.78;33.22;;;;;;;;;;5080067;28;37798;-81
2021/06/27 04:58:26;;;;;;;43.17;35.15;;;;;;;;;;5083900;27;37350;-81
2021/06/27 05:03:28;;;;;;;44.00;37.05;;;;;;;;;;5735361;22;20144;-81
2021/06/27 05:05:55;;;;;;;45.10;37.65;;;;;;;;;;5070716;28;38059;-81
2021/06/27 05:08:23;;;;;;;46.85;37.97;;;;;;;;;;5068673;28;37296;-81
2021/06/27 05:10:49;;;;;;;43.08;34.65;;;;;;;;;;5063127;28;38951;-81
2021/06/27 05:13:20;;;;;;;39.00;33.97;;;;;;;;;;5065819;28;38455;-81
2021/06/27 05:15:51;;;;;;;45.95;35.97;;;;;;;;;;5067654;28;37950;-81
2021/06/27 05:18:19;;;;;;;41.72;36.38;;;;;;;;;;5048834;28;39007;-80
2021/06/27 05:20:45;;;;;;;41.30;34.80;;;;;;;;;;5075215;28;38947;-80
2021/06/27 05:23:13;;;;;;;37.97;33.83;;;;;;;;;;5073222;28;40077;-80
2021/06/27 05:25:42;;;;;;;39.97;33.08;;;;;;;;;;5062006;28;39298;-80
2021/06/27 05:28:09;;;;;;;42.40;32.92;;;;;;;;;;5054899;28;37107;-81
2021/06/27 05:30:37;;;;;;;39.55;32.42;;;;;;;;;;5078286;28;37621;-81
2021/06/27 05:33:04;;;;;;;36.30;32.33;;;;;;;;;;5058167;28;38341;-81
2021/06/27 05:35:31;;;;;;;38.70;31.67;;;;;;;;;;5079052;28;38051;-81
2021/06/27 05:37:58;;;;;;;32.83;29.15;;;;;;;;;;5068695;28;37408;-81
2021/06/27 05:40:25;;;;;;;34.30;29.90;;;;;;;;;;5058715;28;38682;-80
2021/06/27 05:42:57;;;;;;;34.67;29.77;;;;;;;;;;5062197;28;38450;-81
2021/06/27 05:45:23;;;;;;;;;;;;;;;;;;5065301;28;38376;-81
2021/06/27 05:47:50;;;;;;;33.45;29.80;;;;;;;;;;5067843;28;37317;-81
2021/06/27 05:50:16;;;;;;;33.88;29.27;;;;;;;;;;5060180;28;36927;-81
2021/06/27 05:52:43;;;;;;;36.47;31.98;;;;;;;;;;5070568;28;40432;-81
2021/06/27 05:55:15;;;;;;;35.53;31.63;;;;;;;;;;5066955;28;37969;-82
2021/06/27 05:57:42;;;;;;;37.58;32.08;;;;;;;;;;5083030;28;36063;-81
2021/06/27 06:00:09;;;;;;;34.28;29.70;;;;;;;;;;5063539;28;38812;-81
2021/06/27 06:02:35;;;;;;;36.00;30.25;;;;;;;;;;5065780;28;38559;-81
2021/06/27 06:05:04;;;;;;;36.53;30.90;;;;;;;;;;5069556;28;36673;-80
2021/06/27 06:07:40;;;;;;;38.78;31.80;;;;;;;;;;5067474;28;47304;-81
2021/06/27 06:10:07;;;;;;;40.70;32.25;;;;;;;;;;5078095;28;39007;-80
2021/06/27 06:12:34;;;;;;;33.80;30.02;;;;;;;;;;5070582;28;37131;-81
2021/06/27 06:15:01;;;;;;;34.53;30.55;;;;;;;;;;5084335;22;38339;-80
2021/06/27 06:17:27;;;;;;;35.50;31.50;;;;;;;;;;5061668;28;35861;-81
2021/06/27 06:19:54;;;;;;;37.20;30.38;;;;;;;;;;5042056;28;40800;-79
2021/06/27 06:22:20;;;;;;;38.08;33.25;;;;;;;;;;5061346;28;39955;-80
2021/06/27 06:24:48;;;;;;;37.38;31.45;;;;;;;;;;5065535;28;38809;-80
2021/06/27 06:27:17;;;;;;;34.80;29.92;;;;;;;;;;5069040;28;38228;-80
2021/06/27 06:29:43;;;;;;;32.97;29.48;;;;;;;;;;5068360;28;38664;-81
2021/06/27 06:32:10;;;;;;;38.08;32.58;;;;;;;;;;5047809;28;39468;-80
2021/06/27 06:34:41;;;;;;;37.15;32.25;;;;;;;;;;5050720;28;37748;-82
2021/06/27 06:37:19;;;;;;;34.17;30.10;;;;;;;;;;5045840;28;36184;-81
2021/06/27 06:39:46;;;;;;;36.58;30.17;;;;;;;;;;5066586;28;38750;-81
2021/06/27 06:42:13;;;;;;;39.67;32.20;;;;;;;;;;5060350;28;37097;-81
2021/06/27 06:44:39;;;;;;;34.80;29.98;;;;;;;;;;5065513;28;38108;-80
2021/06/27 06:47:06;;;;;;;36.42;30.98;;;;;;;;;;5044433;28;37554;-81
2021/06/27 06:49:37;;;;;;;33.22;29.65;;;;;;;;;;5049740;28;38657;-80
2021/06/27 06:52:05;;;;;;;34.90;31.08;;;;;;;;;;5066408;28;39101;-80
2021/06/27 06:54:31;;;;;;;31.52;28.13;;;;;;;;;;5049665;28;36996;-80
2021/06/27 06:56:58;;;;;;;31.83;28.35;;;;;;;;;;5052069;28;37724;-81
2021/06/27 06:59:27;;;;;;;32.47;28.95;;;;;;;;;;5055857;28;38650;-81
2021/06/27 07:01:53;;;;;;;33.88;28.30;;;;;;;;;;5059226;28;38510;-80
2021/06/27 07:04:42;;;;;;;33.50;29.67;;;;;;;;;;5057017;28;38336;-81
2021/06/27 07:07:18;;;;;;;34.88;29.00;;;;;;;;;;5067072;28;36353;-81
2021/06/27 07:09:57;;;;;;;35.72;29.60;;;;;;;;;;5073811;28;39035;-82
2021/06/27 07:12:25;;;;;;;31.60;27.38;;;;;;;;;;5069794;28;37557;-81
2021/06/27 07:14:53;;;;;;;29.67;26.48;;;;;;;;;;5050896;28;38026;-81
2021/06/27 07:17:20;;;;;;;34.13;30.05;;;;;;;;;;5068833;28;37130;-82
2021/06/27 07:20:05;;;;;;;34.35;30.63;;;;;;;;;;5056479;28;38138;-80
2021/06/27 07:22:32;;;;;;;31.55;26.27;;;;;;;;;;5061048;28;48424;-83
2021/06/27 07:24:58;;;;;;;31.70;27.55;;;;;;;;;;5069410;28;38145;-81
2021/06/27 07:27:25;;;;;;;31.63;28.02;;;;;;;;;;5069654;28;37482;-81
2021/06/27 07:30:04;;;;;;;29.90;26.73;;;;;;;;;;5077783;28;40230;-81
2021/06/27 07:32:31;;;;;;;30.27;27.17;;;;;;;;;;5039077;28;47782;-81
2021/06/27 07:34:58;;;;;;;35.15;28.48;;;;;;;;;;5073716;28;39136;-80
2021/06/27 07:37:27;;;;;;;33.03;26.73;;;;;;;;;;5062436;28;37427;-81
2021/06/27 07:40:04;;;;;;;31.00;27.67;;;;;;;;;;5075543;28;38975;-81
2021/06/27 07:45:14;;;;;;;29.30;26.15;;;;;;;;;;5265281;22;20043;-82
2021/06/27 07:47:42;;;;;;;29.80;26.60;;;;;;;;;;5116698;27;36602;-82
2021/06/27 07:50:12;;;;;;;28.42;25.25;;;;;;;;;;5118733;27;39867;-82
2021/06/27 07:52:39;;;;;;;29.02;25.88;;;;;;;;;;5120356;28;39471;-82
2021/06/27 07:58:11;;;;;;;26.05;23.35;;;;;;;;;;5117042;27;50599;-82
2021/06/27 08:00:38;;;;;;;27.67;24.40;;;;;;;;;;5487754;22;42573;-81
2021/06/27 08:03:17;;;;;;;25.25;22.65;;;;;;;;;;5094086;28;37021;-80
2021/06/27 08:05:43;;;;;;;27.88;23.45;;;;;;;;;;5115010;28;38892;-82
2021/06/27 08:10:46;;;;;;;26.67;21.80;;;;;;;;;;5504252;22;20050;-81
2021/06/27 08:26:31;;;;;;;27.48;24.48;;;;;;;;;;5953681;22;20059;-82
2021/06/27 08:29:07;;;;;;;25.75;23.05;;;;;;;;;;5112430;27;37501;-81
2021/06/27 08:36:47;;;;;;;26.30;23.70;;;;;;;;;;5949481;22;20056;-80
2021/06/27 08:39:34;;;;;;;27.13;22.25;;;;;;;;;;5099672;27;36859;-80
2021/06/27 08:42:15;;;;;;;27.00;23.42;;;;;;;;;;5080983;27;40348;-81
2021/06/27 08:57:49;;;;;;;20.77;18.67;;;;;;;;;;6073229;22;20044;-81
2021/06/27 09:03:12;;;;;;;21.33;18.45;;;;;;;;;;5161037;22;20055;-81
2021/06/27 09:05:40;;;;;;;21.25;19.05;;;;;;;;;;5111172;27;39595;-81
2021/06/27 09:08:15;;;;;;;20.42;18.38;;;;;;;;;;5092125;27;38729;-80
2021/06/27 09:10:52;;;;;;;22.70;18.70;;;;;;;;;;5109495;27;38641;-81
2021/06/27 09:13:36;;;;;;;21.20;18.15;;;;;;;;;;5630969;22;40271;-81
2021/06/27 09:19:42;;;;;;;16.80;15.07;;;;;;;;;;5114603;27;39632;-81
2021/06/27 09:22:12;;;;;;;19.95;15.38;;;;;;;;;;5822045;22;37314;-80
2021/06/27 09:24:39;;;;;;;17.50;15.55;;;;;;;;;;5187031;22;38734;-81
2021/06/27 09:27:17;;;;;;;16.58;14.77;;;;;;;;;;5112847;28;38756;-80
2021/06/27 09:30:06;;;;;;;15.80;14.20;;;;;;;;;;5122351;27;38486;-81
2021/06/27 09:32:37;;;;;;;17.40;14.55;;;;;;;;;;5128027;27;47707;-81
2021/06/27 09:35:04;;;;;;;;;;;;;;;;;;5106415;28;38909;-80
2021/06/27 09:37:31;;;;;;;14.02;12.63;;;;;;;;;;5120379;27;48297;-79
2021/06/27 09:40:03;;;;;;;18.88;16.85;;;;;;;;;;5134386;27;39065;-81
2021/06/27 09:42:31;;;;;;;18.98;16.92;;;;;;;;;;5477839;22;37644;-81
2021/06/27 09:45:08;;;;;;;16.67;14.90;;;;;;;;;;5117138;27;38090;-80
2021/06/27 09:47:36;;;;;;;16.52;14.75;;;;;;;;;;5108628;27;48578;-80
2021/06/27 09:50:21;;;;;;;17.27;15.48;;;;;;;;;;5241890;22;39338;-79
2021/06/27 09:52:52;;;;;;;15.43;13.98;;;;;;;;;;5089562;28;47030;-81
2021/06/27 09:55:19;;;;;;;12.70;11.55;;;;;;;;;;5092591;28;40229;-81
2021/06/27 09:57:47;;;;;;;16.67;15.05;;;;;;;;;;5086316;28;37527;-81
2021/06/27 10:00:38;;;;;;;13.10;11.80;;;;;;;;;;5092489;28;38090;-81
2021/06/27 10:03:08;;;;;;;16.88;15.18;;;;;;;;;;5094008;28;37154;-81
2021/06/27 10:05:37;;;;;;;13.30;11.90;;;;;;;;;;5090921;28;38100;-80
2021/06/27 10:08:23;;;;;;;16.63;10.85;;;;;;;;;;5084057;28;38110;-81
2021/06/27 10:11:24;;;;;;;11.07;9.98;;;;;;;;;;5092418;28;39409;-81
2021/06/27 10:13:55;;;;;;;15.95;12.93;;;;;;;;;;5434941;22;48980;-79
2021/06/27 10:16:26;;;;;;;13.35;12.13;;;;;;;;;;5202213;22;38824;-81
2021/06/27 10:38:04;;;;;;;12.50;10.35;;;;;;;;;;5876843;22;20127;-81
2021/06/27 10:40:48;;;;;;;12.87;10.63;;;;;;;;;;5092614;28;48050;-81
2021/06/27 10:43:14;;;;;;;11.43;10.13;;;;;;;;;;5549425;22;38513;-80
2021/06/27 10:45:48;;;;;;;10.30;9.30;;;;;;;;;;6109788;22;37493;31
2021/06/27 10:50:52;;;;;;;9.73;8.82;;;;;;;;;;5470206;22;20056;-81
2021/06/27 10:53:18;;;;;;;10.23;9.20;;;;;;;;;;5097825;28;38213;-80
2021/06/27 10:56:01;;;;;;;9.55;8.38;;;;;;;;;;5095399;28;37093;-82
2021/06/27 10:58:38;;;;;;;11.95;7.78;;;;;;;;;;5883674;22;48195;-81
2021/06/27 11:01:06;;;;;;;7.53;6.82;;;;;;;;;;5124396;27;38521;-80
2021/06/27 11:03:42;;;;;;;8.77;7.00;;;;;;;;;;5113466;22;37103;-79
2021/06/27 11:06:16;;;;;;;6.93;6.22;;;;;;;;;;5090971;27;36725;-79
2021/06/27 11:09:08;;;;;;;7.13;6.43;;;;;;;;;;5083442;28;39463;-79
2021/06/27 11:11:56;;;;;;;8.07;7.28;;;;;;;;;;5082214;28;49349;-77
2021/06/27 11:14:30;;;;;;;8.73;6.25;;;;;;;;;;5084136;28;36877;-80
2021/06/27 11:17:08;;;;;;;8.75;7.90;;;;;;;;;;5085620;28;36348;-80
2021/06/27 11:20:08;;;;;;;5.30;4.57;;;;;;;;;;5073961;28;48913;-79
2021/06/27 11:22:53;;;;;;;4.50;4.10;;;;;;;;;;5052831;28;47405;-80
2021/06/27 11:28:27;;;;;;;4.80;4.40;;;;;;;;;;5075286;27;21612;-80
2021/06/27 11:30:55;;;;;;;9.27;4.55;;;;;;;;;;5078207;27;38150;-80
2021/06/27 11:33:23;;;;;;;4.22;3.83;;;;;;;;;;5081925;27;38008;-80
2021/06/27 11:35:56;;;;;;;4.93;4.47;;;;;;;;;;5075692;28;38811;-80
2021/06/27 11:38:42;;;;;;;5.13;4.68;;;;;;;;;;5076772;27;36656;-79
2021/06/27 11:41:11;;;;;;;5.07;4.55;;;;;;;;;;5077219;27;38983;-80
2021/06/27 11:43:56;;;;;;;5.70;4.35;;;;;;;;;;5081260;28;38847;-80
2021/06/27 11:46:42;;;;;;;4.18;3.88;;;;;;;;;;5091819;27;38354;-79
2021/06/27 11:49:27;;;;;;;6.78;4.05;;;;;;;;;;5076552;28;38064;-81
2021/06/27 11:51:53;;;;;;;5.03;4.55;;;;;;;;;;5080154;27;39287;-80
2021/06/27 11:54:27;;;;;;;5.00;4.53;;;;;;;;;;5077186;27;38834;-81
2021/06/27 11:56:54;;;;;;;5.38;4.88;;;;;;;;;;5077579;28;38896;-80
2021/06/27 11:59:25;;;;;;;5.60;5.00;;;;;;;;;;5085773;27;36849;-80
2021/06/27 12:02:06;;;;;;;5.32;4.82;;;;;;;;;;5077628;27;37970;-80
2021/06/27 12:04:52;;;;;;;5.63;4.72;;;;;;;;;;5075266;27;49261;-80
2021/06/27 12:07:25;;;;;;;4.85;4.40;;;;;;;;;;5077942;27;37575;-80
2021/06/27 12:09:53;;;;;;;5.82;4.50;;;;;;;;;;5079076;28;37197;-81
2021/06/27 12:12:36;;;;;;;5.72;5.13;;;;;;;;;;5078514;27;37529;-79
2021/06/27 12:15:04;;;;;;;5.15;4.70;;;;;;;;;;5081414;27;39780;-79
2021/06/27 12:17:30;;;;;;;5.00;4.50;;;;;;;;;;5079739;28;47165;-80
2021/06/27 12:19:57;;;;;;;4.60;4.20;;;;;;;;;;5082715;28;39925;-80
2021/06/27 12:22:24;;;;;;;5.03;4.50;;;;;;;;;;5079475;28;39917;-80
2021/06/27 12:24:51;;;;;;;4.95;4.50;;;;;;;;;;5084201;28;38606;-80
2021/06/27 12:27:17;;;;;;;5.25;4.75;;;;;;;;;;5093796;27;39310;-81
2021/06/27 12:29:53;;;;;;;4.97;4.55;;;;;;;;;;5102479;27;37509;-81
2021/06/27 12:32:19;;;;;;;4.68;4.28;;;;;;;;;;5112068;27;39040;-81
2021/06/27 12:34:47;;;;;;;5.45;4.68;;;;;;;;;;5092796;28;37499;-80
2021/06/27 12:37:14;;;;;;;4.80;4.40;;;;;;;;;;5095800;27;37946;-80
2021/06/27 12:39:41;;;;;;;4.90;4.40;;;;;;;;;;5102797;27;36456;-80
2021/06/27 12:42:12;;;;;;;4.70;4.30;;;;;;;;;;5097063;27;39395;-80
2021/06/27 12:44:38;;;;;;;5.03;4.63;;;;;;;;;;5098258;27;41112;-81
2021/06/27 12:47:06;;;;;;;4.95;4.47;;;;;;;;;;5096956;27;37715;-81
2021/06/27 12:49:35;;;;;;;5.15;4.65;;;;;;;;;;5095616;28;35386;-81
2021/06/27 12:52:03;;;;;;;4.97;4.57;;;;;;;;;;5091999;28;39230;-80
2021/06/27 12:54:29;;;;;;;4.13;3.83;;;;;;;;;;5103188;27;40212;-81
2021/06/27 12:57:12;;;;;;;5.07;4.55;;;;;;;;;;5096992;28;37971;-81
2021/06/27 12:59:41;;;;;;;4.03;3.72;;;;;;;;;;5094242;28;48457;-80
2021/06/27 13:02:11;;;;;;;5.18;3.92;;;;;;;;;;5097468;27;37527;-80
2021/06/27 13:04:37;;;;;;;3.95;3.65;;;;;;;;;;5104204;27;37684;-80
2021/06/27 13:07:12;;;;;;;4.13;3.72;;;;;;;;;;5094956;27;37344;-81
2021/06/27 13:09:40;;;;;;;3.78;3.38;;;;;;;;;;5099665;28;35557;-81
2021/06/27 13:12:14;;;;;;;4.43;4.03;;;;;;;;;;5100814;27;40282;-81
2021/06/27 13:14:42;;;;;;;6.50;3.80;;;;;;;;;;5103204;27;39726;-81
2021/06/27 13:17:13;;;;;;;4.00;3.65;;;;;;;;;;5102113;27;37471;-81
2021/06/27 13:20:08;;;;;;;4.65;3.40;;;;;;;;;;5100713;27;36838;-81
2021/06/27 13:22:35;;;;;;;5.20;3.38;;;;;;;;;;5092076;28;47135;-81
2021/06/27 13:25:04;;;;;;;4.13;3.72;;;;;;;;;;5099214;27;37309;-81
2021/06/27 13:27:31;;;;;;;6.10;3.97;;;;;;;;;;5100284;28;46914;-81
2021/06/27 13:30:16;;;;;;;4.60;4.25;;;;;;;;;;5105254;28;37244;-81
2021/06/27 13:32:43;;;;;;;4.38;3.97;;;;;;;;;;5098095;28;47318;-81
2021/06/27 13:35:48;;;;;;;4.40;4.00;;;;;;;;;;5101402;27;40843;-81
2021/06/27 13:38:16;;;;;;;4.93;3.88;;;;;;;;;;5041657;28;37043;-81
2021/06/27 13:40:50;;;;;;;4.20;3.80;;;;;;;;;;5052743;28;37028;-81
2021/06/27 13:43:19;;;;;;;4.13;3.50;;;;;;;;;;5080425;28;38081;-81
2021/06/27 13:45:50;;;;;;;5.03;3.40;;;;;;;;;;5106956;27;37510;-81
2021/06/27 13:48:16;;;;;;;3.90;3.50;;;;;;;;;;5110943;27;39126;-81
2021/06/27 13:50:43;;;;;;;4.68;3.80;;;;;;;;;;5099539;27;36006;-81
2021/06/27 13:53:09;;;;;;;3.33;3.03;;;;;;;;;;5097532;28;39377;-80
2021/06/27 13:55:36;;;;;;;3.50;3.20;;;;;;;;;;5094283;27;38311;-80
2021/06/27 13:58:02;;;;;;;5.15;3.60;;;;;;;;;;5094662;27;36762;-79
2021/06/27 14:00:29;;;;;;;4.40;3.95;;;;;;;;;;5097322;27;37016;-80
2021/06/27 14:02:55;;;;;;;5.10;3.55;;;;;;;;;;5113318;27;38671;-80
2021/06/27 14:05:23;;;;;;;4.00;3.70;;;;;;;;;;5091891;27;36269;-79
2021/06/27 14:07:50;;;;;;;4.03;3.63;;;;;;;;;;5092496;28;36515;-79
2021/06/27 14:10:18;;;;;;;4.85;3.28;;;;;;;;;;5090274;27;36661;-80
2021/06/27 14:12:44;;;;;;;3.60;3.30;;;;;;;;;;5092520;27;40312;-79
2021/06/27 14:15:11;;;;;;;3.97;3.60;;;;;;;;;;5105398;27;37599;-80
2021/06/27 14:17:38;;;;;;;3.67;3.38;;;;;;;;;;5102011;28;37559;-79
2021/06/27 14:20:08;;;;;;;5.10;3.85;;;;;;;;;;5100580;27;37533;-80
2021/06/27 14:22:35;;;;;;;5.68;3.85;;;;;;;;;;5102790;28;38343;-81
2021/06/27 14:25:01;;;;;;;4.22;3.65;;;;;;;;;;5128564;27;37783;-80
2021/06/27 14:27:36;;;;;;;3.83;3.50;;;;;;;;;;5110551;27;37721;-81
2021/06/27 14:30:04;;;;;;;4.07;3.15;;;;;;;;;;5104844;28;36860;-81
2021/06/27 14:32:30;;;;;;;3.55;3.25;;;;;;;;;;5104330;27;48779;-80
2021/06/27 14:34:57;;;;;;;4.18;3.58;;;;;;;;;;5104706;28;37723;-81
2021/06/27 14:37:26;;;;;;;6.38;3.28;;;;;;;;;;5108420;27;37062;-80
2021/06/27 14:39:53;;;;;;;4.22;3.83;;;;;;;;;;5104834;27;37992;-80
2021/06/27 14:42:20;;;;;;;3.72;3.30;;;;;;;;;;5101173;27;38122;-81
2021/06/27 14:44:46;;;;;;;3.92;3.53;;;;;;;;;;5114545;28;37398;-81
2021/06/27 14:47:13;;;;;;;6.45;4.00;;;;;;;;;;5106544;27;37759;-81
2021/06/27 14:49:41;;;;;;;16.70;15.30;;;;;;;;;;5099836;28;35566;-82
2021/06/27 14:52:08;;;;;;;6.85;4.75;;;;;;;;;;5120712;27;39274;-81
2021/06/27 14:54:34;;;;;;;5.50;5.07;;;;;;;;;;5110058;27;39095;-81
2021/06/27 14:57:00;;;;;;;8.32;7.60;;;;;;;;;;5108877;28;36641;-82
2021/06/27 14:59:27;;;;;;;7.88;6.95;;;;;;;;;;5109063;27;49162;-81
2021/06/27 15:01:59;;;;;;;8.27;7.32;;;;;;;;;;5118420;27;40271;-81
2021/06/27 15:04:33;;;;;;;7.75;6.28;;;;;;;;;;5127467;27;38029;-81
2021/06/27 15:07:00;;;;;;;17.13;13.65;;;;;;;;;;5105089;27;37104;-81
2021/06/27 15:09:26;;;;;;;9.65;8.70;;;;;;;;;;5104910;27;37479;-82
2021/06/27 15:11:52;;;;;;;5.70;4.07;;;;;;;;;;5106489;27;38852;-80
2021/06/27 15:14:19;;;;;;;5.45;4.70;;;;;;;;;;5105891;27;38637;-80
2021/06/27 15:16:46;;;;;;;5.13;4.63;;;;;;;;;;5102652;27;38358;-80
2021/06/27 15:19:14;;;;;;;4.95;4.53;;;;;;;;;;5105878;28;37366;-81
2021/06/27 15:21:41;;;;;;;6.43;5.28;;;;;;;;;;5092260;27;39171;-82
2021/06/27 15:24:08;;;;;;;5.95;4.90;;;;;;;;;;5103819;27;37250;-80
2021/06/27 15:26:34;;;;;;;6.05;5.43;;;;;;;;;;5114168;27;37570;-80
2021/06/27 15:29:01;;;;;;;9.32;5.75;;;;;;;;;;5108369;28;37179;-80
2021/06/27 15:31:31;;;;;;;8.35;7.30;;;;;;;;;;5109955;27;40168;-81
2021/06/27 15:33:58;;;;;;;9.52;7.13;;;;;;;;;;5111306;28;37873;-80
2021/06/27 15:36:26;;;;;;;9.00;6.50;;;;;;;;;;5108961;27;37380;-80
2021/06/27 15:38:53;;;;;;;7.95;7.15;;;;;;;;;;5106445;28;37506;-80
2021/06/27 15:41:19;;;;;;;8.55;7.70;;;;;;;;;;5100671;27;39274;-79
2021/06/27 15:43:47;;;;;;;9.98;8.57;;;;;;;;;;5101653;28;38711;-79
2021/06/27 15:46:15;;;;;;;7.95;5.20;;;;;;;;;;5126325;27;38365;-80
2021/06/27 15:48:42;;;;;;;7.22;6.53;;;;;;;;;;5093267;28;37667;-80
2021/06/27 15:51:08;;;;;;;5.60;5.10;;;;;;;;;;5096954;27;38205;-80
2021/06/27 15:53:35;;;;;;;5.55;5.05;;;;;;;;;;5102472;28;38909;-80
2021/06/27 15:56:11;;;;;;;5.93;4.80;;;;;;;;;;5107852;28;38222;-81
2021/06/27 15:58:44;;;;;;;7.70;4.45;;;;;;;;;;5121196;22;47134;-80
2021/06/27 16:01:13;;;;;;;6.00;3.30;;;;;;;;;;5078676;28;39432;-79
2021/06/27 16:03:40;;;;;;;3.47;3.15;;;;;;;;;;5377147;22;38790;-82
2021/06/27 16:06:07;;;;;;;10.35;3.20;;;;;;;;;;5352774;22;39447;-78
2021/06/27 16:08:35;;;;;;;9.60;3.40;;;;;;;;;;5409492;22;35557;-80
2021/06/27 16:11:02;;;;;;;15.05;4.85;;;;;;;;;;5104657;27;37645;-81
2021/06/27 16:13:29;;;;;;;15.88;5.25;;;;;;;;;;5094609;27;46958;-80
2021/06/27 16:15:58;;;;;;;19.17;5.35;;;;;;;;;;5129832;22;37248;-80
2021/06/27 16:18:27;;;;;;;12.13;4.90;;;;;;;;;;5109865;27;35339;-79
2021/06/27 16:21:06;;;;;;;11.88;4.70;;;;;;;;;;5093959;27;38655;-80
2021/06/27 16:23:33;;;;;;;8.55;4.90;;;;;;;;;;5090045;27;47974;-81
2021/06/27 16:25:59;;;;;;;10.63;5.30;;;;;;;;;;5094370;28;38504;-81
2021/06/27 16:28:44;;;;;;;9.40;4.65;;;;;;;;;;5102090;28;35730;-81
2021/06/27 16:31:22;;;;;;;6.95;4.57;;;;;;;;;;5081531;28;38954;-81
2021/06/27 16:33:59;;;;;;;10.75;4.38;;;;;;;;;;5285476;22;38671;31
2021/06/27 16:36:50;;;;;;;8.15;5.00;;;;;;;;;;5064649;28;37457;-81
2021/06/27 16:39:18;;;;;;;6.95;5.53;;;;;;;;;;5090207;28;36831;-81
2021/06/27 16:41:48;;;;;;;8.18;5.85;;;;;;;;;;5241500;22;39141;-81
2021/06/27 16:44:23;;;;;;;5.68;4.88;;;;;;;;;;5118721;27;37969;-81
2021/06/27 16:54:41;;;;;;;10.85;8.40;;;;;;;;;;5293576;22;20846;-80
2021/06/27 16:57:13;;;;;;;9.48;6.18;;;;;;;;;;5065631;28;38225;-81
2021/06/27 16:59:40;;;;;;;5.78;5.18;;;;;;;;;;5070892;28;37245;-81
2021/06/27 17:02:20;;;;;;;9.15;5.28;;;;;;;;;;5066084;28;38395;-80
2021/06/27 17:10:14;;;;;;;8.32;6.28;;;;;;;;;;5449580;22;20044;-81
2021/06/27 17:15:32;;;;;;;8.35;6.13;;;;;;;;;;5656396;22;20021;-80
2021/06/27 17:18:04;;;;;;;7.60;6.20;;;;;;;;;;5110159;28;38663;-80
2021/06/27 17:20:31;;;;;;;7.53;5.90;;;;;;;;;;5114222;27;47848;-79
2021/06/27 17:22:59;;;;;;;8.38;6.13;;;;;;;;;;5109461;28;38044;-80
2021/06/27 17:25:28;;;;;;;7.45;5.93;;;;;;;;;;5092734;27;39901;-80
2021/06/27 17:31:19;;;;;;;7.35;5.72;;;;;;;;;;5099540;27;48271;-80
2021/06/27 17:36:46;;;;;;;7.05;5.40;;;;;;;;;;5086988;27;48633;-81
2021/06/27 17:39:18;;;;;;;6.15;4.88;;;;;;;;;;5095130;27;38395;-82
2021/06/27 17:41:52;;;;;;;7.10;5.75;;;;;;;;;;5114097;27;36039;-83
2021/06/27 17:44:24;;;;;;;6.88;5.25;;;;;;;;;;5102644;27;38943;-81
2021/06/27 17:46:51;;;;;;;6.82;5.38;;;;;;;;;;5087278;28;38120;-81
2021/06/27 17:49:31;;;;;;;6.68;5.35;;;;;;;;;;5113662;27;38810;-81
2021/06/27 17:52:05;;;;;;;6.78;5.45;;;;;;;;;;5142981;27;38025;-81
2021/06/27 17:54:32;;;;;;;7.32;6.07;;;;;;;;;;5100071;28;47085;-81
2021/06/27 17:57:14;;;;;;;5.85;5.35;;;;;;;;;;5087218;27;37919;-82
2021/06/27 17:59:50;;;;;;;8.88;5.47;;;;;;;;;;5064430;27;48017;-81
2021/06/27 18:02:24;;;;;;;8.05;5.35;;;;;;;;;;5117707;27;37453;-81
2021/06/27 18:04:51;;;;;;;6.45;5.82;;;;;;;;;;5096300;27;39306;-81
2021/06/27 18:07:17;;;;;;;6.65;6.03;;;;;;;;;;5103937;27;39131;-83
2021/06/27 18:10:06;;;;;;;6.82;6.13;;;;;;;;;;5107953;27;37582;-81
2021/06/27 18:12:39;;;;;;;8.77;6.38;;;;;;;;;;5082012;27;48780;-82
2021/06/27 18:15:07;;;;;;;7.15;6.30;;;;;;;;;;5107394;27;40254;-81
2021/06/27 18:17:33;;;;;;;7.10;6.00;;;;;;;;;;5113633;27;39899;-81
2021/06/27 18:20:09;;;;;;;7.13;6.43;;;;;;;;;;5105295;27;37559;-82
2021/06/27 18:23:03;;;;;;;7.13;6.25;;;;;;;;;;5097951;27;49402;-84
2021/06/27 18:25:32;;;;;;;7.25;6.55;;;;;;;;;;5442383;22;48241;-82
2021/06/27 18:28:10;;;;;;;6.20;5.60;;;;;;;;;;5055364;28;38619;-81
2021/06/27 18:30:36;;;;;;;7.25;6.15;;;;;;;;;;5065090;28;48706;-78
2021/06/27 18:33:21;;;;;;;8.07;6.50;;;;;;;;;;5084345;28;35908;-81
2021/06/27 18:35:51;;;;;;;8.48;7.10;;;;;;;;;;5745166;22;48527;-80
2021/06/27 18:38:18;;;;;;;7.10;6.50;;;;;;;;;;5110851;27;37031;-80
2021/06/27 18:40:48;;;;;;;7.88;7.07;;;;;;;;;;5103192;28;38559;-81
2021/06/27 18:43:16;;;;;;;8.77;7.47;;;;;;;;;;5101668;27;36896;-80
2021/06/27 18:45:43;;;;;;;9.43;6.80;;;;;;;;;;5119735;27;37341;-81
2021/06/27 18:53:19;;;;;;;9.10;8.25;;;;;;;;;;6280027;22;20843;-80
2021/06/27 18:55:48;;;;;;;9.23;7.43;;;;;;;;;;5113789;27;38190;-80
2021/06/27 18:58:22;;;;;;;8.27;7.47;;;;;;;;;;5114792;27;38531;-80
2021/06/27 19:00:58;;;;;;;7.90;7.20;;;;;;;;;;5098050;28;39747;-82
2021/06/27 19:03:28;;;;;;;8.70;7.43;;;;;;;;;;5102470;27;37653;-81
2021/06/27 19:11:43;;;;;;;11.98;9.25;;;;;;;;;;5063789;27;39223;-81
2021/06/27 19:14:14;;;;;;;12.75;10.63;;;;;;;;;;5073201;28;38099;-81
2021/06/27 19:16:49;;;;;;;11.73;9.77;;;;;;;;;;5089424;28;39247;-82
2021/06/27 19:19:22;;;;;;;9.50;8.60;;;;;;;;;;5088369;27;41622;-80
2021/06/27 19:22:04;;;;;;;10.38;9.43;;;;;;;;;;5087859;27;38703;-83
2021/06/27 19:24:35;;;;;;;;;;;;;;;;;;5094036;28;48415;-81
2021/06/27 19:27:14;;;;;;;10.35;9.27;;;;;;;;;;5090263;28;39483;-81
2021/06/27 19:29:54;;;;;;;13.77;10.43;;;;;;;;;;5065700;28;38391;-81
2021/06/27 19:32:23;;;;;;;9.32;8.15;;;;;;;;;;5056228;28;38613;-81
2021/06/27 19:34:59;;;;;;;10.85;9.75;;;;;;;;;;5087233;28;36417;-82
2021/06/27 19:37:32;;;;;;;8.88;8.00;;;;;;;;;;5094630;28;38454;-81
2021/06/27 19:39:58;;;;;;;12.15;9.30;;;;;;;;;;5086682;28;39698;-81